createdAt,value
2019-04-23T00:00:07.693Z,0.60
2019-04-23T00:02:50.934Z,0.63
2019-04-23T00:05:33.537Z,0.70
2019-04-23T00:10:25.643Z,0.70
2019-04-23T00:12:53.078Z,0.70
2019-04-23T00:15:45.401Z,0.70
2019-04-23T00:18:16.436Z,0.70
2019-04-23T00:20:42.571Z,0.70
2019-04-23T00:26:22.132Z,0.60
2019-04-23T00:28:51.978Z,0.70
2019-04-23T00:31:22.153Z,0.60
2019-04-23T00:33:51.153Z,0.60
2019-04-23T00:36:25.976Z,0.60
2019-04-23T00:38:49.922Z,0.60
2019-04-23T00:41:29.707Z,0.60
2019-04-23T00:44:01.873Z,0.70
2019-04-23T00:46:33.915Z,0.70
2019-04-23T00:49:05.859Z,0.70
2019-04-23T00:51:34.675Z,0.70
2019-04-23T00:54:08.665Z,0.70
2019-04-23T00:59:08.295Z,0.60
2019-04-23T01:01:49.559Z,0.70
2019-04-23T01:04:12.235Z,0.70
2019-04-23T01:06:45.947Z,0.70
2019-04-23T01:09:15.590Z,0.70
2019-04-23T01:11:50.975Z,0.60
2019-04-23T01:14:20.278Z,0.70
2019-04-23T01:16:48.410Z,0.60
2019-04-23T01:19:54.707Z,0.70
2019-04-23T01:22:10.615Z,0.70
2019-04-23T01:25:09.791Z,0.60
2019-04-23T01:28:04.424Z,0.60
2019-04-23T01:30:34.364Z,0.60
2019-04-23T01:33:09.242Z,0.70
2019-04-23T01:35:37.979Z,0.70
2019-04-23T01:38:11.562Z,0.70
2019-04-23T01:40:40.712Z,0.70
2019-04-23T01:43:16.258Z,0.70
2019-04-23T01:45:35.842Z,0.70
2019-04-23T01:48:24.313Z,0.70
2019-04-23T01:50:54.953Z,0.70
2019-04-23T01:53:26.530Z,0.70
2019-04-23T02:00:57.668Z,0.70
2019-04-23T02:03:49.992Z,0.70
2019-04-23T02:08:32.225Z,0.70
2019-04-23T02:11:10.602Z,0.70
2019-04-23T02:13:47.368Z,0.70
2019-04-23T02:16:11.782Z,0.70
2019-04-23T02:18:45.531Z,0.70
2019-04-23T02:21:35.243Z,0.70
2019-04-23T02:23:55.144Z,0.60
2019-04-23T02:26:33.296Z,0.70
2019-04-23T02:31:57.458Z,0.60
2019-04-23T02:36:51.122Z,0.60
2019-04-23T02:39:17.323Z,0.70
2019-04-23T02:41:54.580Z,0.60
2019-04-23T02:46:59.493Z,0.70
2019-04-23T02:49:39.977Z,0.70
2019-04-23T03:04:50.073Z,0.70
2019-04-23T03:09:53.819Z,0.70
2019-04-23T03:15:14.896Z,0.70
2019-04-23T03:18:13.916Z,0.70
2019-04-23T03:20:53.164Z,0.70
2019-04-23T03:23:47.216Z,0.70
2019-04-23T03:25:56.910Z,0.60
2019-04-23T03:28:37.699Z,0.70
2019-04-23T03:38:47.394Z,0.70
2019-04-23T03:41:21.546Z,0.63
2019-04-23T03:43:47.115Z,0.70
2019-04-23T03:48:46.613Z,0.70
2019-04-23T03:51:17.301Z,0.70
2019-04-23T03:59:11.346Z,0.70
2019-04-23T04:11:25.779Z,0.70
2019-04-23T04:14:23.709Z,0.70
2019-04-23T04:16:46.514Z,0.63
2019-04-23T04:19:16.806Z,0.67
2019-04-23T04:21:38.977Z,0.70
2019-04-23T04:24:11.327Z,0.60
2019-04-23T04:26:51.061Z,0.70
2019-04-23T04:29:21.483Z,0.70
2019-04-23T04:34:50.144Z,0.70
2019-04-23T04:37:16.802Z,0.70
2019-04-23T04:39:27.245Z,0.70
2019-04-23T04:41:56.851Z,0.70
2019-04-23T04:47:05.371Z,0.70
2019-04-23T04:49:49.458Z,0.60
2019-04-23T04:59:46.222Z,0.70
2019-04-23T05:02:27.992Z,0.70
2019-04-23T05:04:55.995Z,0.70
2019-04-23T05:07:48.250Z,0.70
2019-04-23T05:12:22.894Z,0.70
2019-04-23T05:14:58.816Z,0.70
2019-04-23T05:17:55.540Z,0.70
2019-04-23T05:23:00.470Z,0.70
2019-04-23T05:25:17.557Z,0.70
2019-04-23T05:30:29.779Z,0.70
2019-04-23T05:32:59.159Z,0.70
2019-04-23T05:38:07.232Z,0.70
2019-04-23T05:40:37.946Z,0.70
2019-04-23T05:45:38.257Z,0.70
2019-04-23T05:48:16.231Z,0.70
2019-04-23T05:53:14.833Z,0.70
2019-04-23T05:55:53.280Z,0.70
2019-04-23T06:00:59.862Z,0.60
2019-04-23T06:03:21.275Z,0.70
2019-04-23T06:05:54.182Z,0.70
2019-04-23T06:11:02.533Z,0.60
2019-04-23T06:13:36.269Z,0.60
2019-04-23T06:16:12.315Z,0.70
2019-04-23T06:18:42.284Z,0.70
2019-04-23T06:21:10.176Z,0.70
2019-04-23T06:23:43.668Z,0.70
2019-04-23T06:26:25.502Z,0.70
2019-04-23T06:28:46.768Z,0.70
2019-04-23T06:31:18.109Z,0.70
2019-04-23T06:33:48.099Z,0.70
2019-04-23T06:36:21.935Z,0.70
2019-04-23T06:41:23.427Z,0.60
2019-04-23T06:44:13.005Z,0.70
2019-04-23T06:46:48.099Z,0.60
2019-04-23T06:49:22.133Z,0.70
2019-04-23T06:51:53.331Z,0.60
2019-04-23T06:54:22.117Z,0.70
2019-04-23T06:57:02.347Z,0.60
2019-04-23T07:02:04.694Z,0.60
2019-04-23T07:04:25.893Z,0.70
2019-04-23T07:07:13.600Z,0.60
2019-04-23T07:09:27.434Z,0.60
2019-04-23T07:11:59.066Z,0.70
2019-04-23T07:14:37.250Z,0.70
2019-04-23T07:17:03.805Z,0.60
2019-04-23T07:19:39.403Z,0.60
2019-04-23T07:22:14.610Z,0.60
2019-04-23T07:24:45.843Z,0.70
2019-04-23T07:27:13.453Z,0.70
2019-04-23T07:29:55.557Z,0.60
2019-04-23T07:32:11.089Z,0.60
2019-04-23T07:34:55.673Z,0.70
2019-04-23T07:37:17.367Z,0.67
2019-04-23T07:43:03.162Z,0.60
2019-04-23T07:45:45.489Z,0.60
2019-04-23T07:48:16.690Z,0.60
2019-04-23T07:53:22.861Z,0.60
2019-04-23T08:01:01.020Z,0.60
2019-04-23T08:03:48.302Z,0.60
2019-04-23T08:06:00.556Z,0.60
2019-04-23T08:08:39.858Z,0.60
2019-04-23T08:11:30.793Z,0.60
2019-04-23T08:14:00.445Z,0.60
2019-04-23T08:18:54.051Z,0.60
2019-04-23T08:24:00.276Z,0.60
2019-04-23T08:29:19.877Z,0.60
2019-04-23T08:34:39.023Z,0.70
2019-04-23T08:37:06.426Z,0.60
2019-04-23T08:39:38.298Z,0.60
2019-04-23T08:42:28.709Z,0.57
2019-04-23T08:45:28.028Z,0.60
2019-04-23T08:50:37.174Z,0.60
2019-04-23T08:53:29.641Z,0.60
2019-04-23T08:55:53.598Z,0.60
2019-04-23T08:58:23.785Z,0.60
2019-04-23T09:00:58.911Z,0.60
2019-04-23T09:03:28.173Z,0.60
2019-04-23T09:06:11.804Z,0.60
2019-04-23T09:11:04.876Z,0.60
2019-04-23T09:15:59.888Z,0.60
2019-04-23T09:18:32.611Z,0.60
2019-04-23T09:21:12.218Z,0.60
2019-04-23T09:26:08.972Z,0.60
2019-04-23T09:31:40.322Z,0.60
2019-04-23T09:34:04.834Z,0.60
2019-04-23T09:37:04.691Z,0.60
2019-04-23T09:42:38.028Z,0.60
2019-04-23T09:45:35.839Z,0.60
2019-04-23T09:48:01.951Z,0.60
2019-04-23T09:53:24.131Z,0.60
2019-04-23T09:55:40.346Z,0.60
2019-04-23T09:58:12.994Z,0.57
2019-04-23T10:03:10.685Z,0.50
2019-04-23T10:05:33.569Z,0.60
2019-04-23T10:08:05.097Z,0.60
2019-04-23T10:10:30.143Z,0.60
2019-04-23T10:13:02.082Z,0.60
2019-04-23T10:15:37.189Z,0.60
2019-04-23T10:18:04.701Z,0.60
2019-04-23T10:20:36.299Z,0.60
2019-04-23T10:23:08.245Z,0.60
2019-04-23T10:25:40.188Z,0.50
2019-04-23T10:28:20.861Z,0.60
2019-04-23T10:30:51.365Z,0.60
2019-04-23T10:33:21.670Z,0.60
2019-04-23T10:35:58.932Z,0.60
2019-04-23T10:38:25.989Z,0.60
2019-04-23T10:40:56.230Z,0.60
2019-04-23T10:43:28.301Z,0.60
2019-04-23T10:46:49.266Z,0.60
2019-04-23T10:52:20.495Z,0.50
2019-04-23T10:54:42.038Z,0.60
2019-04-23T10:59:43.244Z,0.53
2019-04-23T11:02:34.993Z,0.60
2019-04-23T11:05:11.349Z,0.50
2019-04-23T11:07:30.781Z,0.50
2019-04-23T11:10:03.663Z,0.53
2019-04-23T11:13:10.696Z,0.50
2019-04-23T11:15:32.290Z,0.60
2019-04-23T11:17:52.174Z,0.50
2019-04-23T11:23:12.715Z,0.60
2019-04-23T11:28:17.996Z,0.60
2019-04-23T11:33:14.708Z,0.50
2019-04-23T11:38:44.500Z,0.60
2019-04-23T11:40:41.889Z,0.60
2019-04-23T11:46:10.461Z,0.60
2019-04-23T11:48:51.345Z,0.60
2019-04-23T11:53:33.868Z,0.50
2019-04-23T11:58:37.584Z,0.50
2019-04-23T12:01:42.242Z,0.50
2019-04-23T12:07:13.998Z,0.50
2019-04-23T12:12:29.763Z,0.60
2019-04-23T12:15:03.608Z,0.50
2019-04-23T12:17:35.389Z,0.60
2019-04-23T12:20:28.989Z,0.50
2019-04-23T12:27:39.049Z,0.53
2019-04-23T12:32:56.630Z,0.57
2019-04-23T12:38:25.705Z,0.50
2019-04-23T12:40:51.120Z,0.60
2019-04-23T12:45:56.829Z,0.60
2019-04-23T12:48:35.032Z,0.50
2019-04-23T12:53:30.644Z,0.50
2019-04-23T12:56:02.419Z,0.50
2019-04-23T12:58:26.880Z,0.50
2019-04-23T13:00:58.463Z,0.50
2019-04-23T13:03:37.235Z,0.50
2019-04-23T13:05:59.346Z,0.50
2019-04-23T13:08:45.982Z,0.50
2019-04-23T13:11:30.358Z,0.50
2019-04-23T13:13:48.430Z,0.50
2019-04-23T13:16:16.728Z,0.50
2019-04-23T13:18:48.135Z,0.50
2019-04-23T13:21:41.388Z,0.50
2019-04-23T13:24:02.162Z,0.50
2019-04-23T13:26:30.735Z,0.40
2019-04-23T13:29:11.848Z,0.50
2019-04-23T13:31:34.356Z,0.50
2019-04-23T13:34:16.321Z,0.50
2019-04-23T13:39:18.740Z,0.50
2019-04-23T13:41:38.623Z,0.60
2019-04-23T13:44:19.595Z,0.50
2019-04-23T13:46:54.474Z,0.50
2019-04-23T13:49:26.308Z,0.50
2019-04-23T13:51:58.426Z,0.50
2019-04-23T13:54:46.379Z,0.57
2019-04-23T13:57:33.007Z,0.50
2019-04-23T13:59:41.684Z,0.50
2019-04-23T14:02:07.806Z,0.53
2019-04-23T14:04:56.008Z,0.50
2019-04-23T14:07:25.207Z,0.50
2019-04-23T14:12:24.172Z,0.55
2019-04-23T14:15:06.461Z,0.57
2019-04-23T14:17:38.193Z,0.50
2019-04-23T14:20:03.000Z,0.50
2019-04-23T14:22:51.302Z,0.50
2019-04-23T14:27:39.398Z,0.40
2019-04-23T14:30:12.791Z,0.50
2019-04-23T14:35:21.324Z,0.50
2019-04-23T14:38:01.961Z,0.50
2019-04-23T14:40:26.699Z,0.50
2019-04-23T14:42:59.998Z,0.60
2019-04-23T14:45:59.725Z,0.60
2019-04-23T14:48:04.328Z,0.50
2019-04-23T14:53:16.007Z,0.50
2019-04-23T14:55:49.008Z,0.50
2019-04-23T14:58:28.293Z,0.50
2019-04-23T15:00:54.448Z,0.50
2019-04-23T15:03:26.918Z,0.50
2019-04-23T15:06:04.899Z,0.60
2019-04-23T15:11:08.248Z,0.50
2019-04-23T15:13:28.207Z,0.50
2019-04-23T15:16:07.899Z,0.60
2019-04-23T15:27:32.479Z,0.60
2019-04-23T15:28:43.827Z,0.60
2019-04-23T15:31:41.259Z,0.60
2019-04-23T15:34:18.908Z,0.60
2019-04-23T15:39:16.354Z,0.60
2019-04-23T15:41:49.337Z,0.50
2019-04-23T15:46:47.662Z,0.60
2019-04-23T15:54:32.045Z,0.50
2019-04-23T15:56:55.031Z,0.40
2019-04-23T16:01:41.975Z,0.60
2019-04-23T16:04:03.494Z,0.50
2019-04-23T16:06:36.867Z,0.50
2019-04-23T16:09:33.799Z,0.60
2019-04-23T16:11:59.635Z,0.50
2019-04-23T16:14:47.936Z,0.50
2019-04-23T16:17:20.988Z,0.50
2019-04-23T16:22:39.438Z,0.50
2019-04-23T16:25:12.960Z,0.60
2019-04-23T16:27:48.768Z,0.50
2019-04-23T16:30:19.279Z,0.50
2019-04-23T16:35:56.712Z,0.60
2019-04-23T16:38:32.498Z,0.50
2019-04-23T16:43:19.858Z,0.60
2019-04-23T16:46:04.189Z,0.60
2019-04-23T17:03:36.219Z,0.60
2019-04-23T17:09:26.371Z,0.60
2019-04-23T17:11:18.922Z,0.60
2019-04-23T17:16:23.375Z,0.60
2019-04-23T17:18:56.404Z,0.60
2019-04-23T17:21:23.357Z,0.50
2019-04-23T17:24:10.884Z,0.50
2019-04-23T17:26:29.107Z,0.50
2019-04-23T17:31:35.055Z,0.50
2019-04-23T17:34:12.904Z,0.60
2019-04-23T17:37:12.141Z,0.50
2019-04-23T17:40:17.717Z,0.50
2019-04-23T17:43:04.932Z,0.60
2019-04-23T17:45:32.503Z,0.60
2019-04-23T17:48:16.033Z,0.60
2019-04-23T17:51:08.154Z,0.50
2019-04-23T17:53:26.826Z,0.60
2019-04-23T17:56:08.433Z,0.60
2019-04-23T17:58:34.302Z,0.60
2019-04-23T18:01:17.188Z,0.50
2019-04-23T18:03:49.765Z,0.60
2019-04-23T18:11:16.153Z,0.60
2019-04-23T18:13:49.822Z,0.50
2019-04-23T18:16:32.945Z,0.60
2019-04-23T18:21:35.756Z,0.50
2019-04-23T18:24:22.611Z,0.60
2019-04-23T18:27:02.897Z,0.50
2019-04-23T18:32:58.685Z,0.60
2019-04-23T18:35:08.769Z,0.50
2019-04-23T18:37:23.775Z,0.60
2019-04-23T18:39:54.701Z,0.60
2019-04-23T18:42:35.489Z,0.50
2019-04-23T18:44:57.431Z,0.50
2019-04-23T18:50:02.248Z,0.60
2019-04-23T18:52:42.898Z,0.60
2019-04-23T18:55:14.580Z,0.60
2019-04-23T18:57:41.805Z,0.60
2019-04-23T19:00:37.043Z,0.60
2019-04-23T19:03:04.148Z,0.60
2019-04-23T19:08:44.435Z,0.60
2019-04-23T19:11:23.377Z,0.60
2019-04-23T19:13:55.763Z,0.60
2019-04-23T19:16:24.456Z,0.60
2019-04-23T19:18:58.084Z,0.60
2019-04-23T19:23:54.824Z,0.57
2019-04-23T19:26:59.933Z,0.60
2019-04-23T19:29:00.610Z,0.60
2019-04-23T19:34:21.165Z,0.60
2019-04-23T19:36:56.358Z,0.60
2019-04-23T19:39:33.769Z,0.50
2019-04-23T19:44:27.920Z,0.60
2019-04-23T19:47:04.770Z,0.60
2019-04-23T19:49:31.612Z,0.60
2019-04-23T19:54:52.535Z,0.60
2019-04-23T20:02:07.451Z,0.60
2019-04-23T20:09:52.034Z,0.60
2019-04-23T20:12:40.387Z,0.60
2019-04-23T20:14:48.768Z,0.60
2019-04-23T20:19:48.722Z,0.60
2019-04-23T20:22:34.032Z,0.60
2019-04-23T20:25:10.766Z,0.60
2019-04-23T20:27:47.925Z,0.60
2019-04-23T20:30:36.112Z,0.60
2019-04-23T20:35:50.303Z,0.60
2019-04-23T20:43:25.585Z,0.60
2019-04-23T20:48:30.997Z,0.60
2019-04-23T20:50:51.982Z,0.60
2019-04-23T20:53:33.039Z,0.60
2019-04-23T20:56:10.109Z,0.60
2019-04-23T21:01:30.591Z,0.60
2019-04-23T21:06:39.838Z,0.60
2019-04-23T21:09:31.204Z,0.60
2019-04-23T21:14:31.791Z,0.60
2019-04-23T21:16:41.311Z,0.60
2019-04-23T21:22:12.903Z,0.60
2019-04-23T21:24:42.806Z,0.60
2019-04-23T21:27:27.828Z,0.60
2019-04-23T21:32:35.382Z,0.60
2019-04-23T21:35:05.595Z,0.60
2019-04-23T21:37:49.513Z,0.60
2019-04-23T21:43:09.906Z,0.60
2019-04-23T21:45:54.657Z,0.60
2019-04-23T21:48:15.630Z,0.70
2019-04-23T21:50:52.440Z,0.60
2019-04-23T21:53:18.749Z,0.60
2019-04-23T21:55:54.715Z,0.60
2019-04-23T21:58:26.075Z,0.60
2019-04-23T22:00:58.479Z,0.60
2019-04-23T22:03:45.344Z,0.60
2019-04-23T22:06:06.117Z,0.60
2019-04-23T22:08:36.919Z,0.60
2019-04-23T22:11:28.651Z,0.60
2019-04-23T22:13:53.797Z,0.60
2019-04-23T22:16:14.610Z,0.60
2019-04-23T22:18:48.003Z,0.60
2019-04-23T22:21:20.870Z,0.60
2019-04-23T22:26:22.170Z,0.60
2019-04-23T22:28:58.371Z,0.60
2019-04-23T22:31:23.412Z,0.60
2019-04-23T22:34:04.860Z,0.60
2019-04-23T22:36:22.974Z,0.60
2019-04-23T22:39:00.341Z,0.70
2019-04-23T22:41:28.614Z,0.70
2019-04-23T22:44:05.363Z,0.70
2019-04-23T22:54:16.783Z,0.60
2019-04-23T22:59:26.660Z,0.60
2019-04-23T23:07:01.375Z,0.70
2019-04-23T23:09:32.817Z,0.60
2019-04-23T23:14:47.418Z,0.70
2019-04-23T23:17:08.820Z,0.60
2019-04-23T23:20:01.540Z,0.67
2019-04-23T23:24:48.411Z,0.70
2019-04-23T23:27:16.703Z,0.60
2019-04-23T23:29:51.554Z,0.60
2019-04-23T23:32:23.184Z,0.63
2019-04-23T23:35:07.894Z,0.60
2019-04-23T23:40:00.228Z,0.60
2019-04-23T23:42:22.040Z,0.60
2019-04-23T23:45:02.225Z,0.60
2019-04-23T23:52:42.848Z,0.70
2019-04-23T23:55:09.465Z,0.70
2019-04-23T23:57:44.440Z,0.60
